Time;durP1;ratioP1;P1;durP2;ratioP2;P2;SDS_P1;SDS_P2;PMS_P1;PMS_P2;Temp;Humidity;BMP_temperature;BMP_pressure;BME280_temperature;BME280_humidity;BME280_pressure;Samples;Min_cycle;Max_cycle;Signal;HPM_P1;HPM_P2
2021/12/18 00:02:09;;;;;;;9.80;3.35;;;8.10;99.90;;;;;;5137938;27;20105;-64
2021/12/18 00:04:34;;;;;;;18.70;3.22;;;8.10;99.90;;;;;;5103775;28;20156;-64
2021/12/18 00:07:01;;;;;;;11.57;2.35;;;8.00;99.90;;;;;;5102568;28;20149;-64
2021/12/18 00:09:29;;;;;;;3.63;2.20;;;8.00;99.90;;;;;;5104371;28;20044;-64
2021/12/18 00:11:55;;;;;;;25.75;2.55;;;8.00;99.90;;;;;;5104450;27;20046;-64
2021/12/18 00:14:21;;;;;;;11.93;2.33;;;8.00;99.90;;;;;;5107181;27;20032;-64
2021/12/18 00:16:46;;;;;;;8.38;2.20;;;8.00;99.90;;;;;;5104258;28;20394;-64
2021/12/18 00:19:12;;;;;;;4.68;1.67;;;7.90;99.90;;;;;;5098691;28;20097;-64
2021/12/18 00:21:38;;;;;;;8.55;2.30;;;7.90;99.90;;;;;;5103642;28;20452;-64
2021/12/18 00:24:05;;;;;;;11.55;2.40;;;7.90;99.90;;;;;;5101900;28;20112;-64
2021/12/18 00:26:32;;;;;;;5.10;2.15;;;7.90;99.90;;;;;;5104062;28;20036;-64
2021/12/18 00:28:57;;;;;;;4.97;2.20;;;7.90;99.90;;;;;;5102433;27;20119;-64
2021/12/18 00:31:23;;;;;;;5.28;1.80;;;7.80;99.90;;;;;;5105417;28;20127;-64
2021/12/18 00:33:49;;;;;;;4.90;1.73;;;7.90;99.90;;;;;;5102497;28;20050;-64
2021/12/18 00:36:15;;;;;;;2.85;1.88;;;7.80;99.90;;;;;;5102737;28;20498;-64
2021/12/18 00:38:41;;;;;;;11.57;1.98;;;7.80;99.90;;;;;;5103293;27;20095;-64
2021/12/18 00:43:39;;;;;;;9.75;2.28;;;7.70;99.90;;;;;;5130768;27;20059;-64
2021/12/18 00:46:04;;;;;;;8.65;2.05;;;7.70;99.90;;;;;;5103933;28;20100;-64
2021/12/18 00:48:30;;;;;;;12.32;2.65;;;7.70;99.90;;;;;;5103654;28;20044;-64
2021/12/18 00:50:56;;;;;;;6.05;2.38;;;7.70;99.90;;;;;;5100724;28;20039;-64
2021/12/18 00:53:22;;;;;;;13.35;2.38;;;7.70;99.90;;;;;;5102729;28;20051;-64
2021/12/18 00:55:50;;;;;;;10.52;2.55;;;7.70;99.90;;;;;;5131882;27;20046;-64
2021/12/18 00:58:16;;;;;;;18.98;2.92;;;7.70;99.90;;;;;;5104975;28;20032;-64
2021/12/18 01:00:42;;;;;;;50.13;4.63;;;7.70;99.90;;;;;;5102507;28;20043;-64
2021/12/18 01:03:17;;;;;;;26.83;4.20;;;7.70;99.90;;;;;;5104864;27;20046;-64
2021/12/18 01:05:43;;;;;;;11.07;3.92;;;7.70;99.90;;;;;;5132709;27;20039;-64
2021/12/18 01:08:09;;;;;;;8.68;3.20;;;7.70;99.90;;;;;;5106205;28;20402;-64
2021/12/18 01:11:00;;;;;;;18.38;3.28;;;7.70;99.90;;;;;;5102231;28;20043;-64
2021/12/18 01:13:31;;;;;;;25.92;3.80;;;7.70;99.90;;;;;;5103905;28;20043;-64
2021/12/18 01:16:05;;;;;;;15.45;3.45;;;7.80;99.90;;;;;;5102786;28;20044;-64
2021/12/18 01:24:00;;;;;;;3.88;2.60;;;7.80;99.90;;;;;;5105681;28;20043;-64
2021/12/18 01:26:25;;;;;;;4.90;2.33;;;7.70;99.90;;;;;;5103957;28;20044;-64
2021/12/18 01:28:51;;;;;;;4.85;2.88;;;7.70;99.90;;;;;;5133175;27;20079;-64
2021/12/18 01:31:16;;;;;;;5.88;1.80;;;7.70;99.90;;;;;;5099699;28;20062;-64
2021/12/18 01:33:42;;;;;;;3.28;1.67;;;7.70;99.90;;;;;;5101935;28;20043;-64
2021/12/18 01:36:08;;;;;;;6.13;1.60;;;7.70;99.90;;;;;;5102421;27;20047;-64
2021/12/18 01:38:33;;;;;;;2.55;1.50;;;7.70;99.90;;;;;;5106208;28;20091;-64
2021/12/18 01:41:01;;;;;;;1.98;1.00;;;7.60;99.90;;;;;;5105872;28;20047;-64
2021/12/18 01:46:38;;;;;;;2.13;1.02;;;7.60;99.90;;;;;;5103086;28;20048;-64
2021/12/18 01:52:04;;;;;;;2.22;0.88;;;7.60;99.90;;;;;;5132827;27;20093;-64
2021/12/18 01:54:30;;;;;;;3.75;1.20;;;7.60;99.90;;;;;;5100587;28;20039;-64
2021/12/18 01:56:56;;;;;;;1.77;1.30;;;7.50;99.90;;;;;;5098895;28;20044;-64
2021/12/18 01:59:38;;;;;;;7.50;1.15;;;7.50;99.90;;;;;;5100404;28;20047;-64
2021/12/18 02:02:04;;;;;;;4.22;1.20;;;7.50;99.90;;;;;;5101064;28;20558;-64
2021/12/18 02:04:29;;;;;;;3.88;1.30;;;7.50;99.90;;;;;;5101311;28;20044;-64
2021/12/18 02:06:57;;;;;;;4.78;1.50;;;7.50;99.90;;;;;;5105078;27;20039;-64
2021/12/18 02:09:28;;;;;;;10.82;2.05;;;7.50;99.90;;;;;;5101522;28;20088;-64
2021/12/18 02:11:54;;;;;;;2.90;1.23;;;7.50;99.90;;;;;;5088312;28;20035;-64
2021/12/18 02:19:31;;;;;;;1.70;1.33;;;7.50;99.90;;;;;;5102251;28;20509;-64
2021/12/18 02:20:22;;;;;;;20.38;1.90;;;7.50;99.90;;;;;;5100996;28;20044;-64
2021/12/18 02:22:49;;;;;;;4.53;1.10;;;7.50;99.90;;;;;;5130810;27;20043;-64
2021/12/18 02:25:14;;;;;;;3.88;1.20;;;7.50;99.90;;;;;;5101088;27;20063;-64
2021/12/18 02:27:40;;;;;;;3.85;0.95;;;7.50;99.90;;;;;;5100639;28;20067;-64
2021/12/18 02:30:07;;;;;;;6.70;0.80;;;7.40;99.90;;;;;;5130619;27;20088;-64
2021/12/18 02:32:33;;;;;;;9.27;1.15;;;7.40;99.90;;;;;;5134023;27;20517;-64
2021/12/18 02:35:04;;;;;;;5.03;1.08;;;7.40;99.90;;;;;;5102689;28;20043;-64
2021/12/18 02:37:40;;;;;;;16.00;1.50;;;7.40;99.90;;;;;;5101017;28;20047;-64
2021/12/18 02:42:52;;;;;;;19.23;1.60;;;7.40;99.90;;;;;;5131042;27;20047;-64
2021/12/18 02:45:18;;;;;;;16.23;1.40;;;7.40;99.90;;;;;;5101340;28;20107;-64
2021/12/18 02:47:47;;;;;;;14.75;1.95;;;7.40;99.90;;;;;;5103839;28;20446;-64
2021/12/18 02:50:13;;;;;;;2.55;1.90;;;7.30;99.90;;;;;;5098353;28;20478;-64
2021/12/18 02:52:39;;;;;;;2.45;1.80;;;7.30;99.90;;;;;;5100495;28;20028;-64
2021/12/18 02:55:05;;;;;;;10.68;2.40;;;7.30;99.90;;;;;;5099143;28;20177;-64
2021/12/18 02:57:30;;;;;;;12.70;1.98;;;7.30;99.90;;;;;;5102641;28;20046;-64
2021/12/18 03:00:03;;;;;;;3.67;2.05;;;7.30;99.90;;;;;;5102034;28;20458;-64
2021/12/18 03:02:34;;;;;;;24.33;2.55;;;7.30;99.90;;;;;;5100060;28;21614;-64
2021/12/18 03:05:05;;;;;;;9.40;1.90;;;7.30;99.90;;;;;;5132421;27;20051;-64
2021/12/18 03:07:31;;;;;;;6.28;2.20;;;7.20;99.90;;;;;;5129977;27;20062;-64
2021/12/18 03:21:24;;;;;;;4.00;1.65;;;7.30;99.90;;;;;;5096668;28;20102;-64
2021/12/18 03:23:41;;;;;;;6.43;2.42;;;7.30;99.90;;;;;;5096539;28;20052;-64
2021/12/18 03:26:06;;;;;;;5.53;2.03;;;7.30;99.90;;;;;;5095773;28;20132;-64
2021/12/18 03:28:32;;;;;;;3.22;1.75;;;7.30;99.90;;;;;;5096299;28;20072;-64
2021/12/18 03:30:58;;;;;;;3.67;1.85;;;7.30;99.90;;;;;;5098630;28;20047;-64
2021/12/18 03:33:25;;;;;;;5.00;2.60;;;7.30;99.90;;;;;;5135043;27;20051;-64
2021/12/18 03:35:51;;;;;;;2.15;1.23;;;7.30;99.90;;;;;;5110738;27;20042;-64
2021/12/18 03:38:17;;;;;;;2.63;1.40;;;7.30;99.90;;;;;;5110358;27;20040;-64
2021/12/18 03:40:43;;;;;;;3.17;1.33;;;7.30;99.90;;;;;;5108085;28;20020;-64
2021/12/18 03:43:08;;;;;;;3.40;1.60;;;7.30;99.90;;;;;;5107222;28;20059;-64
2021/12/18 03:45:34;;;;;;;2.30;1.40;;;7.30;99.90;;;;;;5108824;27;20036;-64
2021/12/18 03:48:00;;;;;;;4.00;1.52;;;7.30;99.90;;;;;;5105567;27;20052;-64
2021/12/18 03:50:25;;;;;;;3.03;1.65;;;7.30;99.90;;;;;;5106301;28;20031;-64
2021/12/18 03:52:51;;;;;;;6.82;2.00;;;7.30;99.90;;;;;;5110022;28;20027;-64
2021/12/18 03:55:17;;;;;;;5.50;2.08;;;7.30;99.90;;;;;;5106512;28;20447;-64
2021/12/18 03:57:49;;;;;;;4.45;2.28;;;7.20;99.90;;;;;;5106549;28;20036;-64
2021/12/18 04:00:16;;;;;;;6.90;2.30;;;7.20;99.90;;;;;;5107856;28;20505;-64
2021/12/18 04:02:43;;;;;;;5.03;1.90;;;7.20;99.90;;;;;;5102528;28;20039;-64
2021/12/18 04:05:10;;;;;;;5.15;2.03;;;7.20;99.90;;;;;;5108494;27;20039;-64
2021/12/18 04:07:41;;;;;;;3.17;1.50;;;7.20;99.90;;;;;;5107281;27;20525;-64
2021/12/18 04:10:09;;;;;;;4.75;1.40;;;7.20;99.90;;;;;;5105395;27;20079;-64
2021/12/18 04:12:34;;;;;;;5.40;1.45;;;7.10;99.90;;;;;;5106927;28;20154;-64
2021/12/18 04:15:00;;;;;;;4.13;1.60;;;7.10;99.90;;;;;;5109411;28;20127;-64
2021/12/18 04:17:25;;;;;;;4.43;1.52;;;7.20;99.90;;;;;;5106788;28;20039;-64
2021/12/18 04:19:51;;;;;;;8.00;1.25;;;7.20;99.90;;;;;;5104780;28;20047;-64
2021/12/18 04:22:17;;;;;;;6.55;1.50;;;7.20;99.90;;;;;;5107722;27;20050;-64
2021/12/18 04:24:42;;;;;;;5.50;1.38;;;7.20;99.90;;;;;;5107844;28;20126;-64
2021/12/18 04:27:08;;;;;;;4.95;1.42;;;7.20;99.90;;;;;;5107708;28;20075;-64
2021/12/18 04:29:33;;;;;;;5.25;1.70;;;7.20;99.90;;;;;;5139760;27;20487;-64
2021/12/18 04:31:59;;;;;;;3.47;1.20;;;7.20;99.90;;;;;;5106009;28;20155;-64
2021/12/18 04:34:25;;;;;;;5.32;1.48;;;7.20;99.90;;;;;;5108394;28;20043;-64
2021/12/18 04:36:51;;;;;;;3.78;1.30;;;7.20;99.90;;;;;;5139062;27;20062;-64
2021/12/18 04:39:16;;;;;;;4.68;1.17;;;7.20;99.90;;;;;;5095608;28;20132;-64
2021/12/18 04:41:48;;;;;;;7.20;1.30;;;7.20;99.90;;;;;;5106554;28;20059;-64
2021/12/18 04:44:14;;;;;;;4.00;1.08;;;7.10;99.90;;;;;;5106714;28;20046;-64
2021/12/18 04:46:40;;;;;;;3.47;0.95;;;7.10;99.90;;;;;;5101900;28;20044;-64
2021/12/18 04:49:05;;;;;;;1.83;0.73;;;7.10;99.90;;;;;;5100869;28;20075;-64
2021/12/18 04:51:31;;;;;;;2.47;0.90;;;7.10;99.90;;;;;;5102973;28;20051;-64
2021/12/18 04:53:57;;;;;;;2.42;0.70;;;7.10;99.90;;;;;;5105634;28;20032;-64
2021/12/18 04:56:23;;;;;;;3.28;1.08;;;7.10;99.90;;;;;;5102676;28;20040;-64
2021/12/18 04:58:49;;;;;;;5.28;1.25;;;7.10;99.90;;;;;;5105844;28;20040;-64
2021/12/18 05:01:15;;;;;;;5.40;1.63;;;7.10;99.90;;;;;;5102231;28;20078;-64
2021/12/18 05:03:42;;;;;;;9.10;1.83;;;7.10;99.90;;;;;;5105487;28;20040;-64
2021/12/18 05:06:08;;;;;;;4.97;1.67;;;7.20;99.90;;;;;;5132326;27;20127;-64
2021/12/18 05:08:34;;;;;;;4.75;1.80;;;7.20;99.90;;;;;;5102910;27;20127;-64
2021/12/18 05:10:59;;;;;;;8.55;1.77;;;7.20;99.90;;;;;;5102210;27;20112;-64
2021/12/18 05:13:25;;;;;;;6.65;2.03;;;7.20;99.90;;;;;;5115246;27;20605;-64
2021/12/18 05:15:50;;;;;;;9.38;1.73;;;7.20;99.90;;;;;;5099695;28;20358;-64
2021/12/18 05:18:16;;;;;;;10.00;1.63;;;7.30;99.90;;;;;;5102435;28;20040;-64
2021/12/18 05:20:42;;;;;;;6.40;1.50;;;7.20;99.90;;;;;;5085540;28;20040;-64
2021/12/18 05:23:07;;;;;;;5.18;1.70;;;7.30;99.90;;;;;;5103544;28;20040;-64
2021/12/18 05:25:33;;;;;;;7.78;2.08;;;7.30;99.90;;;;;;5103211;28;20042;-64
2021/12/18 05:27:58;;;;;;;8.90;2.42;;;7.30;99.90;;;;;;5102364;27;20028;-64
2021/12/18 05:30:24;;;;;;;6.53;2.45;;;7.30;99.90;;;;;;5102441;28;20048;-64
2021/12/18 05:32:50;;;;;;;8.48;2.42;;;7.30;99.90;;;;;;5107780;27;20040;-64
2021/12/18 05:35:16;;;;;;;6.50;2.00;;;7.30;99.90;;;;;;5103105;28;20080;-65
2021/12/18 05:37:46;;;;;;;10.30;2.10;;;7.30;99.90;;;;;;5102824;28;20085;-64
2021/12/18 05:40:23;;;;;;;6.65;2.13;;;7.30;99.90;;;;;;5102697;28;20095;-64
2021/12/18 05:42:50;;;;;;;4.63;2.15;;;7.30;99.90;;;;;;5101388;28;20028;-64
2021/12/18 05:45:17;;;;;;;7.45;2.45;;;7.30;99.90;;;;;;5100210;27;20047;-64
2021/12/18 05:47:43;;;;;;;6.00;2.17;;;7.30;99.90;;;;;;5134814;27;20051;-64
2021/12/18 05:50:11;;;;;;;7.00;2.33;;;7.40;99.90;;;;;;5104845;27;20047;-64
2021/12/18 05:52:38;;;;;;;4.90;1.83;;;7.40;99.90;;;;;;5102657;28;20372;-64
2021/12/18 05:55:04;;;;;;;7.05;2.60;;;7.40;99.90;;;;;;5099049;28;20092;-64
2021/12/18 05:57:29;;;;;;;8.00;2.60;;;7.40;99.90;;;;;;5130804;27;20521;-64
2021/12/18 05:59:55;;;;;;;5.00;2.17;;;7.40;99.90;;;;;;5100603;27;20136;-64
2021/12/18 06:02:21;;;;;;;5.82;2.03;;;7.40;99.90;;;;;;5100091;28;20043;-64
2021/12/18 06:04:47;;;;;;;4.78;1.98;;;7.40;99.90;;;;;;5105820;27;20039;-64
2021/12/18 06:07:43;;;;;;;6.15;2.08;;;7.40;99.90;;;;;;5105319;28;20036;-64
2021/12/18 06:09:59;;;;;;;3.47;1.65;;;7.40;99.90;;;;;;5102495;28;20044;-64
2021/12/18 06:12:26;;;;;;;5.80;1.80;;;7.40;99.90;;;;;;5101309;28;20059;-64
2021/12/18 06:14:52;;;;;;;5.43;2.50;;;7.40;99.90;;;;;;5096591;28;20043;-64
2021/12/18 06:17:17;;;;;;;7.82;2.35;;;7.50;99.90;;;;;;5096996;27;20117;-64
2021/12/18 06:19:43;;;;;;;6.93;2.08;;;7.50;99.90;;;;;;5095977;28;20466;-64
2021/12/18 06:22:09;;;;;;;6.38;2.42;;;7.50;99.90;;;;;;5100874;28;20043;-64
2021/12/18 06:24:35;;;;;;;4.43;2.05;;;7.50;99.90;;;;;;5100312;28;20381;-64
2021/12/18 06:27:00;;;;;;;5.68;2.45;;;7.60;99.90;;;;;;5094513;28;20395;-64
2021/12/18 06:29:26;;;;;;;5.82;2.80;;;7.50;99.90;;;;;;5094411;28;20040;-64
2021/12/18 06:31:51;;;;;;;9.40;3.15;;;7.60;99.90;;;;;;5096442;28;20496;-64
2021/12/18 06:34:17;;;;;;;5.85;2.35;;;7.50;99.90;;;;;;5095706;27;20063;-64
2021/12/18 06:36:43;;;;;;;5.45;2.60;;;7.60;99.90;;;;;;5096600;28;20044;-64
2021/12/18 06:39:09;;;;;;;7.70;3.05;;;7.60;99.90;;;;;;5096581;28;20064;-64
2021/12/18 06:41:35;;;;;;;11.20;3.20;;;7.60;99.90;;;;;;5096870;28;20063;-64
2021/12/18 06:44:00;;;;;;;5.75;3.03;;;7.60;99.90;;;;;;5097334;28;20051;-64
2021/12/18 06:46:26;;;;;;;7.72;3.20;;;7.60;99.90;;;;;;5096150;28;20044;-64
2021/12/18 06:48:52;;;;;;;7.22;2.70;;;7.60;99.90;;;;;;5093527;28;20470;-64
2021/12/18 06:51:19;;;;;;;7.53;3.25;;;7.70;99.90;;;;;;5093656;27;20043;-64
2021/12/18 06:53:45;;;;;;;6.68;2.55;;;7.70;99.90;;;;;;5094652;28;20147;-64
2021/12/18 06:56:11;;;;;;;9.90;3.45;;;7.60;99.90;;;;;;5094528;28;20123;-64
2021/12/18 06:58:36;;;;;;;7.47;3.20;;;7.70;99.90;;;;;;5096371;28;20043;-64
2021/12/18 07:01:02;;;;;;;8.63;3.35;;;7.70;99.90;;;;;;5093856;28;20394;-64
2021/12/18 07:03:28;;;;;;;9.23;3.30;;;7.70;99.90;;;;;;5092907;28;20383;-64
2021/12/18 07:05:54;;;;;;;8.10;3.70;;;7.80;99.90;;;;;;5095640;28;20044;-64
2021/12/18 07:08:19;;;;;;;7.10;3.60;;;7.80;99.90;;;;;;5095455;28;20170;-64
2021/12/18 07:10:45;;;;;;;7.07;2.90;;;7.80;99.90;;;;;;5095079;28;20051;-64
2021/12/18 07:13:11;;;;;;;8.73;3.53;;;7.80;99.90;;;;;;5097687;28;20032;-64
2021/12/18 07:15:38;;;;;;;6.80;3.15;;;7.80;99.90;;;;;;5095794;28;20127;-64
2021/12/18 07:18:03;;;;;;;9.15;3.30;;;7.90;99.90;;;;;;5096188;28;20035;-63
2021/12/18 07:20:29;;;;;;;10.75;3.30;;;7.80;99.90;;;;;;5094806;28;20042;-64
2021/12/18 07:22:55;;;;;;;8.57;3.45;;;7.80;99.90;;;;;;5084067;28;20040;-64
2021/12/18 07:25:20;;;;;;;7.10;3.22;;;7.90;99.90;;;;;;5096966;28;20390;-64
2021/12/18 07:27:46;;;;;;;9.23;3.00;;;7.90;99.90;;;;;;5096981;28;20040;-63
2021/12/18 07:30:13;;;;;;;7.70;3.03;;;7.90;99.90;;;;;;5131865;27;20043;-63
2021/12/18 07:32:39;;;;;;;7.55;3.20;;;7.90;99.90;;;;;;5131897;27;20031;-64
2021/12/18 07:35:06;;;;;;;7.25;3.20;;;7.90;99.90;;;;;;5097570;28;20465;-64
2021/12/18 07:37:32;;;;;;;6.47;3.30;;;7.90;99.90;;;;;;5098217;28;20043;-64
2021/12/18 07:39:58;;;;;;;13.40;3.22;;;8.00;99.90;;;;;;5095107;28;20387;-64
2021/12/18 07:42:24;;;;;;;5.80;2.67;;;8.00;99.90;;;;;;5098117;28;20043;-63
2021/12/18 07:44:50;;;;;;;11.10;2.95;;;7.90;99.90;;;;;;5098268;28;20048;-64
2021/12/18 07:47:16;;;;;;;7.93;3.30;;;8.00;99.90;;;;;;5097649;28;20047;-64
2021/12/18 07:49:42;;;;;;;6.90;2.92;;;8.00;99.90;;;;;;5097697;28;20385;-64
2021/12/18 07:52:08;;;;;;;11.52;4.15;;;8.00;99.90;;;;;;5096684;28;20035;-64
2021/12/18 07:54:34;;;;;;;8.82;3.75;;;8.00;99.90;;;;;;5095884;28;20040;-63
2021/12/18 07:57:00;;;;;;;8.27;3.95;;;8.00;99.90;;;;;;5100685;28;20059;-63
2021/12/18 07:59:26;;;;;;;10.57;3.90;;;8.10;99.90;;;;;;5097485;28;20039;-64
2021/12/18 08:01:51;;;;;;;9.20;3.10;;;8.10;99.90;;;;;;5096932;28;20854;-63
2021/12/18 08:04:17;;;;;;;9.60;4.03;;;8.10;99.90;;;;;;5097177;28;20050;-63
2021/12/18 08:06:42;;;;;;;8.63;3.35;;;8.10;99.90;;;;;;5128586;27;20040;-63
2021/12/18 08:09:08;;;;;;;9.90;3.83;;;8.10;99.90;;;;;;5096940;28;20089;-63
2021/12/18 08:11:34;;;;;;;17.27;4.47;;;8.10;99.90;;;;;;5105996;28;20533;-63
2021/12/18 08:14:00;;;;;;;14.18;4.75;;;8.10;99.90;;;;;;5097410;28;20031;-63
2021/12/18 08:16:25;;;;;;;9.73;4.57;;;8.10;99.90;;;;;;5099661;28;20035;-64
2021/12/18 08:18:51;;;;;;;11.43;4.05;;;8.10;99.90;;;;;;5098144;28;20056;-63
2021/12/18 08:21:17;;;;;;;10.65;4.68;;;8.20;99.90;;;;;;5103062;28;20036;-63
2021/12/18 08:23:42;;;;;;;10.45;4.72;;;8.10;99.90;;;;;;5122733;27;20100;-63
2021/12/18 08:26:08;;;;;;;11.57;5.60;;;8.10;99.90;;;;;;5103156;28;20213;-63
2021/12/18 08:28:34;;;;;;;10.07;4.05;;;8.10;99.90;;;;;;5102933;28;20402;-63
2021/12/18 08:31:00;;;;;;;12.38;4.90;;;8.20;99.90;;;;;;5101932;28;20044;-63
2021/12/18 08:33:26;;;;;;;12.15;5.07;;;8.10;99.90;;;;;;5103363;28;20032;-63
2021/12/18 08:35:52;;;;;;;11.95;4.82;;;8.20;99.90;;;;;;5104431;28;20550;-63
2021/12/18 08:38:18;;;;;;;11.48;4.70;;;8.20;99.90;;;;;;5103673;28;20028;-63
2021/12/18 08:40:44;;;;;;;11.00;4.97;;;8.20;99.90;;;;;;5105675;28;20096;-64
2021/12/18 08:43:09;;;;;;;9.38;5.43;;;8.30;99.90;;;;;;5105009;28;20039;-64
2021/12/18 08:45:36;;;;;;;10.68;4.93;;;8.20;99.90;;;;;;5104384;28;20058;-63
2021/12/18 08:48:02;;;;;;;12.05;5.00;;;8.30;99.90;;;;;;5104751;28;20519;-62
2021/12/18 08:50:28;;;;;;;16.55;5.32;;;8.30;99.90;;;;;;5104942;28;20035;-63
2021/12/18 08:52:53;;;;;;;11.63;5.20;;;8.30;99.90;;;;;;5103083;27;20040;-63
2021/12/18 08:55:21;;;;;;;12.30;5.55;;;8.30;99.90;;;;;;5102609;28;20058;-63
2021/12/18 08:57:59;;;;;;;11.52;5.20;;;8.40;99.90;;;;;;5106638;28;20495;-63
2021/12/18 09:00:26;;;;;;;15.68;5.65;;;8.30;99.90;;;;;;5103682;28;20051;-63
2021/12/18 09:02:58;;;;;;;11.30;5.60;;;8.40;99.90;;;;;;5103433;28;20600;-64
2021/12/18 09:05:24;;;;;;;10.88;5.70;;;8.40;99.90;;;;;;5101103;28;20082;-63
2021/12/18 09:07:50;;;;;;;11.32;4.70;;;8.40;99.90;;;;;;5096934;27;20043;-64
2021/12/18 09:10:16;;;;;;;11.52;5.43;;;8.40;99.90;;;;;;5098845;28;20040;-64
2021/12/18 09:12:43;;;;;;;12.75;5.32;;;8.50;99.90;;;;;;5097231;28;20043;-64
2021/12/18 09:15:09;;;;;;;10.18;4.75;;;8.50;99.90;;;;;;5098038;28;20039;-64
2021/12/18 09:17:35;;;;;;;10.98;4.93;;;8.50;99.90;;;;;;5100317;28;20092;-63
2021/12/18 09:20:01;;;;;;;10.88;5.20;;;8.50;99.90;;;;;;5099679;28;20039;-63
2021/12/18 09:22:28;;;;;;;13.88;4.63;;;8.60;99.90;;;;;;5101713;27;20048;-63
2021/12/18 09:24:54;;;;;;;10.43;4.55;;;8.60;99.90;;;;;;5099531;28;20413;-64
2021/12/18 09:27:22;;;;;;;13.93;5.35;;;8.60;99.90;;;;;;5098232;28;20056;-63
2021/12/18 09:29:47;;;;;;;8.07;4.25;;;8.60;99.90;;;;;;5130697;27;20081;-63
2021/12/18 09:32:13;;;;;;;11.48;4.70;;;8.60;99.90;;;;;;5100134;28;20031;-64
2021/12/18 09:34:39;;;;;;;11.10;4.72;;;8.70;99.90;;;;;;5116223;27;20032;-63
2021/12/18 09:37:05;;;;;;;12.48;4.80;;;8.70;99.90;;;;;;5097804;28;21041;-63
2021/12/18 09:39:30;;;;;;;15.25;5.75;;;8.70;99.90;;;;;;5099131;28;20378;-63
2021/12/18 09:41:56;;;;;;;9.82;5.57;;;8.80;99.90;;;;;;5097392;28;20039;-63
2021/12/18 09:44:33;;;;;;;12.38;4.80;;;8.80;99.90;;;;;;5098311;28;20036;-62
2021/12/18 09:47:00;;;;;;;12.88;4.60;;;8.80;99.90;;;;;;5096356;28;20032;-63
2021/12/18 09:49:26;;;;;;;8.43;4.85;;;8.80;99.90;;;;;;5099267;28;20059;-63
2021/12/18 09:51:53;;;;;;;9.82;4.57;;;8.80;99.90;;;;;;5096735;28;20031;-63
2021/12/18 09:54:19;;;;;;;14.38;5.40;;;8.90;99.90;;;;;;5100713;28;20044;-63
2021/12/18 09:56:45;;;;;;;10.90;4.97;;;8.90;99.90;;;;;;5101094;28;20089;-63
2021/12/18 09:59:11;;;;;;;9.60;4.43;;;9.00;99.90;;;;;;5100387;28;20035;-63
2021/12/18 10:01:37;;;;;;;8.27;4.50;;;9.10;99.90;;;;;;5102570;28;20046;-63
2021/12/18 10:04:04;;;;;;;7.93;3.95;;;9.10;99.90;;;;;;5098624;28;20038;-63
2021/12/18 10:06:40;;;;;;;10.18;4.78;;;9.20;99.90;;;;;;5103558;28;20042;-63
2021/12/18 10:09:31;;;;;;;10.38;4.72;;;9.20;99.90;;;;;;5101414;28;20398;-63
2021/12/18 10:12:00;;;;;;;10.30;4.45;;;9.20;99.90;;;;;;5091762;28;20044;-63
2021/12/18 10:14:49;;;;;;;9.45;4.38;;;9.20;99.90;;;;;;5099530;28;20504;-63
2021/12/18 10:17:29;;;;;;;5.63;3.55;;;9.20;99.90;;;;;;5103061;27;20074;-63
2021/12/18 10:20:22;;;;;;;9.20;4.60;;;9.30;99.90;;;;;;5102770;27;20494;-63
2021/12/18 10:22:51;;;;;;;10.27;4.20;;;9.30;99.90;;;;;;5095145;28;20051;-63
2021/12/18 10:25:30;;;;;;;10.30;4.97;;;9.30;99.90;;;;;;5100993;28;20059;-63
2021/12/18 10:28:20;;;;;;;12.55;4.80;;;9.30;99.90;;;;;;5131070;27;20040;-63
2021/12/18 10:30:47;;;;;;;10.30;4.03;;;9.40;99.90;;;;;;5098385;28;20043;-63
2021/12/18 10:33:14;;;;;;;8.95;4.15;;;9.40;99.90;;;;;;5097819;28;20044;-63
2021/12/18 10:35:42;;;;;;;7.95;3.63;;;9.30;99.90;;;;;;5101495;28;20092;-63
2021/12/18 10:38:09;;;;;;;11.02;3.85;;;9.30;99.90;;;;;;5103122;28;20055;-63
2021/12/18 10:40:44;;;;;;;11.10;3.42;;;9.30;99.90;;;;;;5100644;28;20970;-63
2021/12/18 10:43:10;;;;;;;7.07;3.78;;;9.30;99.90;;;;;;5102267;28;20116;-63
2021/12/18 10:45:36;;;;;;;7.78;3.03;;;9.30;99.90;;;;;;5100174;28;20040;-63
2021/12/18 10:48:06;;;;;;;11.90;3.90;;;9.30;99.90;;;;;;5099852;28;20126;-63
2021/12/18 10:50:40;;;;;;;7.15;3.40;;;9.30;99.90;;;;;;5103661;28;20036;-63
2021/12/18 10:53:17;;;;;;;8.70;3.22;;;9.30;99.90;;;;;;5102463;28;20040;-63
2021/12/18 10:55:42;;;;;;;11.65;3.67;;;9.30;99.90;;;;;;5131537;27;20367;-63
2021/12/18 10:58:21;;;;;;;10.48;3.90;;;9.30;99.90;;;;;;5132556;27;20055;-63
2021/12/18 11:00:55;;;;;;;7.65;4.03;;;9.30;99.90;;;;;;5100616;28;20057;-63
2021/12/18 11:03:22;;;;;;;6.97;3.50;;;9.30;99.90;;;;;;5105018;28;20040;-63
2021/12/18 11:06:04;;;;;;;7.75;3.40;;;9.30;99.90;;;;;;5102546;28;20051;-63
2021/12/18 11:08:30;;;;;;;8.23;3.22;;;9.30;99.90;;;;;;5104677;27;20386;-63
2021/12/18 11:13:38;;;;;;;7.18;3.25;;;9.20;99.90;;;;;;5100175;28;20040;-63
2021/12/18 11:13:48;;;;;;;8.80;2.85;;;9.30;99.90;;;;;;5100126;28;20043;-63
2021/12/18 11:16:16;;;;;;;4.97;2.72;;;9.30;99.90;;;;;;5100562;28;20407;-63
2021/12/18 11:18:43;;;;;;;4.43;2.30;;;9.30;99.90;;;;;;5098123;28;20074;-63
2021/12/18 11:21:08;;;;;;;4.90;1.95;;;9.20;99.90;;;;;;5097799;27;20056;-63
2021/12/18 11:23:42;;;;;;;3.88;1.90;;;9.30;99.90;;;;;;5101681;28;20040;-63
2021/12/18 11:26:12;;;;;;;2.75;1.90;;;9.30;99.90;;;;;;5131012;27;20051;-63
2021/12/18 11:28:43;;;;;;;10.23;3.22;;;9.30;99.90;;;;;;5097996;28;20032;-63
2021/12/18 11:31:09;;;;;;;4.78;2.03;;;9.30;99.90;;;;;;5102900;28;20040;-63
2021/12/18 11:33:35;;;;;;;6.30;2.00;;;9.40;99.90;;;;;;5099376;28;20068;-63
2021/12/18 11:36:03;;;;;;;8.43;2.67;;;9.30;99.90;;;;;;5100451;28;20059;-63
2021/12/18 11:38:31;;;;;;;3.35;2.63;;;9.30;99.90;;;;;;5133782;27;20131;-63
2021/12/18 11:40:58;;;;;;;4.93;2.85;;;9.40;99.90;;;;;;5101828;28;20088;-63
2021/12/18 11:43:37;;;;;;;6.85;3.08;;;9.30;99.90;;;;;;5099408;28;20665;-63
2021/12/18 11:46:31;;;;;;;6.50;2.65;;;9.40;99.90;;;;;;5101299;28;20043;-63
2021/12/18 11:49:02;;;;;;;4.97;2.63;;;9.60;99.90;;;;;;5097985;28;20043;-63
2021/12/18 11:51:29;;;;;;;3.85;2.42;;;9.30;99.90;;;;;;5130568;27;20132;-63
2021/12/18 11:53:55;;;;;;;7.15;3.25;;;9.30;99.90;;;;;;5102376;27;20542;-63
2021/12/18 11:56:21;;;;;;;6.82;2.63;;;9.30;99.90;;;;;;5103969;28;20027;-63
2021/12/18 11:58:48;;;;;;;5.60;2.10;;;9.40;99.90;;;;;;5102552;28;20050;-63
2021/12/18 12:01:22;;;;;;;6.18;2.17;;;9.30;99.90;;;;;;5135666;27;20069;-63
2021/12/18 12:03:51;;;;;;;6.85;3.08;;;9.30;99.90;;;;;;5103571;28;20123;-63
2021/12/18 12:06:30;;;;;;;7.63;2.72;;;9.40;99.90;;;;;;5121290;27;20044;-63
2021/12/18 12:09:38;;;;;;;8.73;2.80;;;9.40;99.90;;;;;;5100759;27;20056;-63
2021/12/18 12:12:08;;;;;;;7.20;2.03;;;9.40;99.90;;;;;;5102727;28;20118;-63
2021/12/18 12:14:42;;;;;;;6.93;2.22;;;9.40;99.90;;;;;;5116130;27;20533;-63
2021/12/18 12:17:08;;;;;;;7.03;2.45;;;9.40;99.90;;;;;;5103525;28;20040;-63
2021/12/18 12:19:33;;;;;;;6.53;2.63;;;9.40;99.90;;;;;;5099380;28;20066;-63
2021/12/18 12:22:00;;;;;;;7.57;3.20;;;9.40;99.90;;;;;;5101476;28;20047;-63
2021/12/18 12:24:28;;;;;;;5.13;2.72;;;9.40;99.90;;;;;;5102794;28;20149;-63
2021/12/18 12:27:14;;;;;;;7.40;3.25;;;9.40;99.90;;;;;;5104154;28;20032;-63
2021/12/18 12:29:47;;;;;;;;;;;9.40;99.90;;;;;;5101484;27;20048;-63
2021/12/18 12:32:13;;;;;;;7.80;2.63;;;9.40;99.90;;;;;;5100471;28;19977;-63
2021/12/18 12:34:39;;;;;;;8.23;3.05;;;9.40;99.90;;;;;;5103018;28;20075;-63
2021/12/18 12:37:23;;;;;;;5.75;2.40;;;9.40;99.90;;;;;;5099236;28;20128;-63
2021/12/18 12:39:56;;;;;;;5.80;1.83;;;9.40;99.90;;;;;;5104382;28;20036;-63
2021/12/18 12:42:22;;;;;;;6.43;1.58;;;9.40;99.90;;;;;;5102821;28;20505;-63
2021/12/18 12:44:55;;;;;;;5.53;2.30;;;9.40;99.90;;;;;;5098735;28;20047;-63
2021/12/18 12:47:24;;;;;;;10.43;2.53;;;9.40;99.90;;;;;;5102612;28;20039;-63
2021/12/18 12:49:53;;;;;;;5.35;1.40;;;9.40;99.90;;;;;;5103091;28;20071;-63
2021/12/18 12:52:29;;;;;;;7.00;1.80;;;9.40;99.90;;;;;;5105349;27;20074;-63
2021/12/18 12:55:14;;;;;;;7.60;1.75;;;9.40;99.90;;;;;;5097778;27;20043;-63
2021/12/18 12:58:02;;;;;;;6.30;2.07;;;9.40;99.90;;;;;;5103125;28;20044;-63
2021/12/18 13:00:28;;;;;;;9.02;1.80;;;9.40;99.90;;;;;;5100230;27;20370;-63
2021/12/18 13:02:58;;;;;;;5.80;1.30;;;9.30;99.90;;;;;;5132422;27;20416;-63
2021/12/18 13:05:27;;;;;;;7.93;1.77;;;9.40;99.90;;;;;;5096923;28;20092;-63
2021/12/18 13:07:58;;;;;;;9.45;2.10;;;9.30;99.90;;;;;;5100180;28;20024;-63
2021/12/18 13:10:35;;;;;;;7.18;2.05;;;9.40;99.90;;;;;;5099478;27;20059;-63
2021/12/18 13:13:07;;;;;;;6.15;1.60;;;9.30;99.90;;;;;;5099668;28;20155;-63
2021/12/18 13:15:56;;;;;;;5.72;1.40;;;9.30;99.90;;;;;;5130266;27;20052;-63
2021/12/18 13:18:24;;;;;;;8.93;1.60;;;9.30;99.90;;;;;;5134948;27;20118;-63
2021/12/18 13:21:04;;;;;;;5.70;1.25;;;9.30;99.90;;;;;;5099810;27;20060;-63
2021/12/18 13:23:45;;;;;;;9.23;1.90;;;9.30;99.90;;;;;;5099937;28;20044;-64
2021/12/18 13:26:16;;;;;;;6.53;1.20;;;9.30;99.90;;;;;;5097266;27;20055;-63
2021/12/18 13:28:54;;;;;;;10.15;1.80;;;9.30;99.90;;;;;;5132201;27;20054;-63
2021/12/18 13:31:23;;;;;;;7.75;1.48;;;9.30;99.90;;;;;;5099844;27;20112;-63
2021/12/18 13:34:10;;;;;;;9.73;1.73;;;9.30;99.90;;;;;;5095377;28;20039;-63